Celebrity Century — 9HJI9 — position and weather

sailwx.info

Track history (hours):
 
Tides and Currents Weather Stations Pressure Air Temp Water Temp Dewpoint Dewpoint Depression Visibility Wind Speed Wind Dir Waves Ship Positions

Celebrity Century

Last reported at 2014-Nov-19 15:21 UTC. Time now 2014-Nov-24 12:20 UTC.
Position S 32°30' E 153°14'.

Length 252 m; draft 8.2 m.

Type: Ship. MMSI: 249054000.

Date/timePositionNaut miles runAvg speedWind from/ knotsBaromVisibWave heightAir tempDewpointWater temp
2014-Nov-19 15:21S 32°30' E 153°14'1518.5
2014-Nov-19 14:33S 32°39' E 153°00'1918.8
2014-Nov-19 13:33S 32°52' E 152°44'1918.9
2014-Nov-19 12:33S 33°04' E 152°27'1918.8
2014-Nov-19 11:33S 33°16' E 152°09'238 8.1
2014-Nov-18 06:13S 36°59' E 150°31'1218.4
2014-Nov-18 05:33S 37°11' E 150°26'1918.7
2014-Nov-18 04:33S 37°29' E 150°19'1818.0
2014-Nov-18 03:33S 37°45' E 150°08'1818.5
2014-Nov-18 02:33S 37°55' E 149°49'3618.0
2014-Nov-18 00:32S 38°16' E 149°11'1818.1
2014-Nov-17 23:33S 38°26' E 148°53'29317.2
2014-Nov-17 06:33S 38°54' E 142°39'1817.7
2014-Nov-17 05:33S 38°50' E 142°17'1817.8
2014-Nov-17 04:33S 38°45' E 141°55'1817.9
2014-Nov-17 03:33S 38°40' E 141°33'7117.7
2014-Nov-16 23:32S 38°06' E 140°13'  
2014-Nov-13 22:03S 38°32' E 141°33'815.7
2014-Nov-13 21:33S 38°35' E 141°43'1414.5
2014-Nov-13 20:33S 38°39' E 142°00'1312.8
2014-Nov-13 19:33S 38°43' E 142°16'1313.0
2014-Nov-13 18:33S 38°47' E 142°32'1313.0
2014-Nov-13 17:33S 38°50' E 142°48'1313.1
2014-Nov-13 16:33S 38°54' E 143°04'1313.2
2014-Nov-13 15:33S 38°57' E 143°20'1312.6
2014-Nov-13 14:33S 38°58' E 143°37'4513.2
2014-Nov-13 11:06S 38°29' E 144°22'47 4.3
2014-Nov-13 00:12S 37°51' E 144°56'0 0.0
2014-Nov-12 23:30S 37°51' E 144°56'0 0.0
2014-Nov-12 22:31S 37°51' E 144°56'0 0.0
2014-Nov-12 21:24S 37°51' E 144°56'0 0.0
2014-Nov-12 20:31S 37°51' E 144°56'8 7.2
2014-Nov-12 19:21S 37°59' E 144°55'1517.5
2014-Nov-12 18:31S 38°14' E 144°55'1111.8
2014-Nov-12 17:33S 38°18' E 144°41'1211.6
2014-Nov-12 16:32S 38°28' E 144°36'1613.9
2014-Nov-12 15:24S 38°42' E 144°46'1214.3
2014-Nov-12 14:34S 38°48' E 144°60'1514.6
2014-Nov-12 13:34S 38°54' E 145°17'1515.0
2014-Nov-12 12:34S 39°01' E 145°34'1616.0
2014-Nov-12 11:34S 39°08' E 145°53'1717.1
2014-Nov-12 10:34S 39°11' E 146°14'1716.9
2014-Nov-12 09:34S 39°08' E 146°35'1716.5
2014-Nov-12 08:33S 39°02' E 146°55'1616.5
2014-Nov-12 07:34S 38°57' E 147°16'1716.8
2014-Nov-12 06:34S 38°52' E 147°36'1717.2
2014-Nov-12 05:34S 38°46' E 147°57'1817.6
2014-Nov-12 04:34S 38°40' E 148°18'1717.0
2014-Nov-12 03:34S 38°30' E 148°36'1716.6
2014-Nov-12 02:34S 38°22' E 148°54'1716.8
2014-Nov-12 01:34S 38°12' E 149°12'1716.8
2014-Nov-12 00:34S 38°03' E 149°30'1818.3
2014-Nov-11 23:34S 37°54' E 149°50'1818.1
2014-Nov-11 22:32S 37°44' E 150°09'1916.7
2014-Nov-11 21:22S 37°26' E 150°20'1416.8
2014-Nov-11 20:33S 37°13' E 150°25'265 8.5
2014-Nov-10 13:24S 33°05' E 152°20'1618.8
2014-Nov-10 12:34S 32°54' E 152°34'1918.8
2014-Nov-10 11:33S 32°44' E 152°53'  
Track history (hours):
 
Tides and Currents Weather Stations Pressure Air Temp Water Temp Dewpoint Dewpoint Depression Visibility Wind Speed Wind Dir Waves Ship Positions

Celebrity Century

Last reported at 2014-Nov-19 15:21 UTC. Time now 2014-Nov-24 12:20 UTC.
Position S 32°30' E 153°14'.

Length 252 m; draft 8.2 m.

Type: Ship. MMSI: 249054000.

Date/timePositionNaut miles runAvg speedWind from/ knotsBaromVisibWave heightAir tempDewpointWater temp
2014-Nov-19 15:21S 32°30' E 153°14'1518.5
2014-Nov-19 14:33S 32°39' E 153°00'1918.8
2014-Nov-19 13:33S 32°52' E 152°44'1918.9
2014-Nov-19 12:33S 33°04' E 152°27'1918.8
2014-Nov-19 11:33S 33°16' E 152°09'238 8.1
2014-Nov-18 06:13S 36°59' E 150°31'1218.4
2014-Nov-18 05:33S 37°11' E 150°26'1918.7
2014-Nov-18 04:33S 37°29' E 150°19'1818.0
2014-Nov-18 03:33S 37°45' E 150°08'1818.5
2014-Nov-18 02:33S 37°55' E 149°49'3618.0
2014-Nov-18 00:32S 38°16' E 149°11'1818.1
2014-Nov-17 23:33S 38°26' E 148°53'29317.2
2014-Nov-17 06:33S 38°54' E 142°39'1817.7
2014-Nov-17 05:33S 38°50' E 142°17'1817.8
2014-Nov-17 04:33S 38°45' E 141°55'1817.9
2014-Nov-17 03:33S 38°40' E 141°33'7117.7
2014-Nov-16 23:32S 38°06' E 140°13'  
2014-Nov-13 22:03S 38°32' E 141°33'815.7
2014-Nov-13 21:33S 38°35' E 141°43'1414.5
2014-Nov-13 20:33S 38°39' E 142°00'1312.8
2014-Nov-13 19:33S 38°43' E 142°16'1313.0
2014-Nov-13 18:33S 38°47' E 142°32'1313.0
2014-Nov-13 17:33S 38°50' E 142°48'1313.1
2014-Nov-13 16:33S 38°54' E 143°04'1313.2
2014-Nov-13 15:33S 38°57' E 143°20'1312.6
2014-Nov-13 14:33S 38°58' E 143°37'4513.2
2014-Nov-13 11:06S 38°29' E 144°22'47 4.3
2014-Nov-13 00:12S 37°51' E 144°56'0 0.0
2014-Nov-12 23:30S 37°51' E 144°56'0 0.0
2014-Nov-12 22:31S 37°51' E 144°56'0 0.0
2014-Nov-12 21:24S 37°51' E 144°56'0 0.0
2014-Nov-12 20:31S 37°51' E 144°56'8 7.2
2014-Nov-12 19:21S 37°59' E 144°55'1517.5
2014-Nov-12 18:31S 38°14' E 144°55'1111.8
2014-Nov-12 17:33S 38°18' E 144°41'1211.6
2014-Nov-12 16:32S 38°28' E 144°36'1613.9
2014-Nov-12 15:24S 38°42' E 144°46'1214.3
2014-Nov-12 14:34S 38°48' E 144°60'1514.6
2014-Nov-12 13:34S 38°54' E 145°17'1515.0
2014-Nov-12 12:34S 39°01' E 145°34'1616.0
2014-Nov-12 11:34S 39°08' E 145°53'1717.1
2014-Nov-12 10:34S 39°11' E 146°14'1716.9
2014-Nov-12 09:34S 39°08' E 146°35'1716.5
2014-Nov-12 08:33S 39°02' E 146°55'1616.5
2014-Nov-12 07:34S 38°57' E 147°16'1716.8
2014-Nov-12 06:34S 38°52' E 147°36'1717.2
2014-Nov-12 05:34S 38°46' E 147°57'1817.6
2014-Nov-12 04:34S 38°40' E 148°18'1717.0
2014-Nov-12 03:34S 38°30' E 148°36'1716.6
2014-Nov-12 02:34S 38°22' E 148°54'1716.8
2014-Nov-12 01:34S 38°12' E 149°12'1716.8
2014-Nov-12 00:34S 38°03' E 149°30'1818.3
2014-Nov-11 23:34S 37°54' E 149°50'1818.1
2014-Nov-11 22:32S 37°44' E 150°09'1916.7
2014-Nov-11 21:22S 37°26' E 150°20'1416.8
2014-Nov-11 20:33S 37°13' E 150°25'265 8.5
2014-Nov-10 13:24S 33°05' E 152°20'1618.8
2014-Nov-10 12:34S 32°54' E 152°34'1918.8
2014-Nov-10 11:33S 32°44' E 152°53'  

Dump ship's entire track history